Time;durP1;ratioP1;P1;durP2;ratioP2;P2;SDS_P1;SDS_P2;PMS_P1;PMS_P2;Temp;Humidity;BMP_temperature;BMP_pressure;BME280_temperature;BME280_humidity;BME280_pressure;Samples;Min_cycle;Max_cycle;Signal;HPM_P1;HPM_P2
2022/05/30 00:00:17;;;;;;;;;;;13.60;73.30;;;;;;5062031;28;19916;-73
2022/05/30 00:02:42;;;;;;;;;;;13.60;73.20;;;;;;5054214;28;20289;-73
2022/05/30 00:05:09;;;;;;;;;;;13.60;73.20;;;;;;5059378;28;19928;-73
2022/05/30 00:07:35;;;;;;;;;;;13.60;73.20;;;;;;5062581;28;19912;-73
2022/05/30 00:10:01;;;;;;;;;;;13.50;73.20;;;;;;5042193;28;19917;-73
2022/05/30 00:12:26;;;;;;;;;;;13.50;73.30;;;;;;5045666;28;19920;-73
2022/05/30 00:14:52;;;;;;;;;;;13.50;73.30;;;;;;5062250;28;20503;-73
2022/05/30 00:17:17;;;;;;;;;;;13.50;73.50;;;;;;5064860;28;19909;-73
2022/05/30 00:19:43;;;;;;;;;;;13.50;73.40;;;;;;5061988;28;19924;-73
2022/05/30 00:22:14;;;;;;;;;;;13.50;73.40;;;;;;5064806;28;20599;-73
2022/05/30 00:24:43;;;;;;;;;;;13.50;73.50;;;;;;5061944;28;19921;-73
2022/05/30 00:27:10;;;;;;;;;;;13.50;73.50;;;;;;5064580;28;19970;-73
2022/05/30 00:29:35;;;;;;;;;;;13.50;73.50;;;;;;5062233;28;20615;-73
2022/05/30 00:32:01;;;;;;;;;;;13.40;73.50;;;;;;5064622;28;19913;-73
2022/05/30 00:34:27;;;;;;;;;;;13.50;73.50;;;;;;5062018;28;20534;-73
2022/05/30 00:36:53;;;;;;;;;;;13.40;73.50;;;;;;5064597;28;20365;-73
2022/05/30 00:39:20;;;;;;;;;;;13.40;73.40;;;;;;5048098;28;20304;-73
2022/05/30 00:41:46;;;;;;;;;;;13.40;73.40;;;;;;5052897;28;20566;-73
2022/05/30 00:44:12;;;;;;;;;;;13.40;73.40;;;;;;5044094;28;19924;-73
2022/05/30 00:46:38;;;;;;;;;;;13.40;73.50;;;;;;5051464;28;20381;-73
2022/05/30 00:49:08;;;;;;;;;;;13.40;73.60;;;;;;5044493;28;19959;-73
2022/05/30 00:51:39;;;;;;;;;;;13.40;73.60;;;;;;5056063;28;19979;-73
2022/05/30 00:54:07;;;;;;;;;;;13.40;73.60;;;;;;5046845;28;20004;-73
2022/05/30 00:56:35;;;;;;;;;;;13.40;73.60;;;;;;5055765;28;20016;-73
2022/05/30 00:59:02;;;;;;;;;;;13.40;73.60;;;;;;5068342;28;19912;-73
2022/05/30 01:01:29;;;;;;;;;;;13.30;73.70;;;;;;5065067;28;20377;-73
2022/05/30 01:06:42;;;;;;;;;;;13.30;73.70;;;;;;5054848;28;20308;-73
2022/05/30 01:09:09;;;;;;;;;;;13.30;73.80;;;;;;5053464;28;20443;-73
2022/05/30 01:11:46;;;;;;;;;;;13.30;73.70;;;;;;5053190;28;19917;-73
2022/05/30 01:14:12;;;;;;;;;;;13.30;73.80;;;;;;5067858;28;19913;-73
2022/05/30 01:16:37;;;;;;;;;;;13.30;73.80;;;;;;5064665;28;19916;-73
2022/05/30 01:19:03;;;;;;;;;;;13.30;73.80;;;;;;5067496;28;19990;-73
2022/05/30 01:21:37;;;;;;;;;;;13.30;73.80;;;;;;5064418;28;20388;-73
2022/05/30 01:24:23;;;;;;;;;;;13.30;73.90;;;;;;5067596;28;19921;-72
2022/05/30 01:26:51;;;;;;;;;;;13.30;73.90;;;;;;5063596;28;19924;-73
2022/05/30 01:29:26;;;;;;;;;;;13.30;73.80;;;;;;5067297;28;20432;-73
2022/05/30 01:31:55;;;;;;;;;;;13.30;73.90;;;;;;5064535;28;20420;-73
2022/05/30 01:34:22;;;;;;;;;;;13.20;73.70;;;;;;5067361;28;19916;-73
2022/05/30 01:36:47;;;;;;;;;;;13.20;74.00;;;;;;5064753;28;19951;-73
2022/05/30 01:39:13;;;;;;;;;;;13.20;74.00;;;;;;5052304;28;20031;-73
2022/05/30 01:41:38;;;;;;;;;;;13.20;74.10;;;;;;5047330;28;20263;-73
2022/05/30 01:44:04;;;;;;;;;;;13.20;74.10;;;;;;5051942;28;19967;-73
2022/05/30 01:46:29;;;;;;;;;;;13.20;74.10;;;;;;5045747;28;19913;-73
2022/05/30 01:48:55;;;;;;;;;;;13.20;74.10;;;;;;5056332;28;19920;-73
2022/05/30 01:51:21;;;;;;;;;;;13.20;74.60;;;;;;5067238;28;19917;-73
2022/05/30 01:53:47;;;;;;;;;;;13.20;74.10;;;;;;5062761;28;19923;-73
2022/05/30 01:56:13;;;;;;;;;;;13.20;74.10;;;;;;5066977;28;19912;-73
2022/05/30 01:58:39;;;;;;;;;;;13.20;74.80;;;;;;5064285;28;19959;-73
2022/05/30 02:01:16;;;;;;;;;;;13.10;74.10;;;;;;5066520;28;19948;-73
2022/05/30 02:03:41;;;;;;;;;;;13.10;74.20;;;;;;5063920;28;20022;-73
2022/05/30 02:06:07;;;;;;;;;;;13.10;74.20;;;;;;5047779;28;20011;-73
2022/05/30 02:08:32;;;;;;;;;;;13.10;74.20;;;;;;5047246;28;19920;-74
2022/05/30 02:10:58;;;;;;;;;;;13.10;74.20;;;;;;5046391;28;20323;-73
2022/05/30 02:13:23;;;;;;;;;;;13.10;74.20;;;;;;5052286;28;19927;-73
2022/05/30 02:18:46;;;;;;;;;;;13.10;74.30;;;;;;5018879;28;19916;-73
2022/05/30 02:21:12;;;;;;;;;;;13.10;74.20;;;;;;5066332;28;19912;-73
2022/05/30 02:23:37;;;;;;;;;;;13.10;74.30;;;;;;5063511;28;20007;-73
2022/05/30 02:26:03;;;;;;;;;;;13.10;74.30;;;;;;5066072;28;19913;-73
2022/05/30 02:28:29;;;;;;;;;;;13.10;74.30;;;;;;5066348;28;20423;-73
2022/05/30 02:30:54;;;;;;;;;;;13.00;74.30;;;;;;5063946;28;19916;-73
2022/05/30 02:38:48;;;;;;;;;;;13.00;74.40;;;;;;5054966;28;20027;-73
2022/05/30 02:41:14;;;;;;;;;;;13.00;74.40;;;;;;5062067;28;20007;-74
2022/05/30 02:43:39;;;;;;;;;;;13.00;74.50;;;;;;5054501;28;19913;-73
2022/05/30 02:46:05;;;;;;;;;;;13.00;74.50;;;;;;5058757;28;19923;-73
2022/05/30 02:48:30;;;;;;;;;;;13.00;74.50;;;;;;5066201;28;19909;-73
2022/05/30 02:50:56;;;;;;;;;;;13.00;74.50;;;;;;5063799;28;19916;-73
2022/05/30 02:53:21;;;;;;;;;;;13.00;74.60;;;;;;5054377;28;20245;-73
2022/05/30 02:55:47;;;;;;;;;;;12.90;74.50;;;;;;5052798;28;20740;-74
2022/05/30 02:58:12;;;;;;;;;;;12.90;74.50;;;;;;5065768;28;20652;-73
2022/05/30 03:00:38;;;;;;;;;;;12.90;74.50;;;;;;5063233;28;19916;-73
2022/05/30 03:03:04;;;;;;;;;;;12.90;74.50;;;;;;5049893;28;20285;-73
2022/05/30 03:05:30;;;;;;;;;;;12.90;74.50;;;;;;5047196;28;19923;-73
2022/05/30 03:07:56;;;;;;;;;;;12.90;74.50;;;;;;5034886;28;19963;-73
2022/05/30 03:10:21;;;;;;;;;;;12.90;74.60;;;;;;5043759;28;19956;-73
2022/05/30 03:12:47;;;;;;;;;;;12.90;74.60;;;;;;5065248;28;20349;-73
2022/05/30 03:15:12;;;;;;;;;;;12.90;74.60;;;;;;5065599;28;19983;-73
2022/05/30 03:17:38;;;;;;;;;;;12.90;74.70;;;;;;5062762;28;19912;-73
2022/05/30 03:20:04;;;;;;;;;;;12.90;74.70;;;;;;5065410;28;19981;-73
2022/05/30 03:22:29;;;;;;;;;;;12.90;74.70;;;;;;5044817;28;19917;-73
2022/05/30 03:24:55;;;;;;;;;;;12.90;74.70;;;;;;5065541;28;20415;-73
2022/05/30 03:27:20;;;;;;;;;;;12.90;74.80;;;;;;5062712;28;19973;-73
2022/05/30 03:29:45;;;;;;;;;;;12.90;74.80;;;;;;5064430;28;19917;-73
2022/05/30 03:32:11;;;;;;;;;;;12.90;74.80;;;;;;5062693;28;20432;-73
2022/05/30 03:34:36;;;;;;;;;;;12.90;74.80;;;;;;5065421;28;19997;-73
2022/05/30 03:37:02;;;;;;;;;;;12.90;74.80;;;;;;5062299;28;19917;-73
2022/05/30 03:39:27;;;;;;;;;;;12.80;74.90;;;;;;5047906;28;19984;-74
2022/05/30 03:41:53;;;;;;;;;;;12.90;74.90;;;;;;5045729;28;19916;-73
2022/05/30 03:44:18;;;;;;;;;;;12.80;74.90;;;;;;5064692;28;20432;-73
2022/05/30 03:46:44;;;;;;;;;;;12.80;74.90;;;;;;5061454;28;19919;-73
2022/05/30 03:49:09;;;;;;;;;;;12.80;74.80;;;;;;5064612;28;20007;-73
2022/05/30 03:51:35;;;;;;;;;;;12.80;75.00;;;;;;5064661;28;19944;-73
2022/05/30 03:54:00;;;;;;;;;;;12.80;75.00;;;;;;5045716;28;20015;-73
2022/05/30 03:56:26;;;;;;;;;;;12.80;75.10;;;;;;5029932;28;19995;-73
2022/05/30 03:58:51;;;;;;;;;;;12.80;75.00;;;;;;5053049;28;19916;-73
2022/05/30 04:01:17;;;;;;;;;;;12.80;75.00;;;;;;5065095;28;20639;-73
2022/05/30 04:03:43;;;;;;;;;;;12.80;74.90;;;;;;5062172;28;20019;-73
2022/05/30 04:06:09;;;;;;;;;;;12.80;74.90;;;;;;5064665;28;19912;-73
2022/05/30 04:08:35;;;;;;;;;;;12.80;74.90;;;;;;5051697;28;19916;-73
2022/05/30 04:11:00;;;;;;;;;;;12.80;75.00;;;;;;5044915;28;19959;-73
2022/05/30 04:13:26;;;;;;;;;;;12.80;74.90;;;;;;5052495;28;19920;-73
2022/05/30 04:15:52;;;;;;;;;;;12.80;74.90;;;;;;5064950;28;19917;-73
2022/05/30 04:18:17;;;;;;;;;;;12.80;74.90;;;;;;5044355;28;19917;-73
2022/05/30 04:20:44;;;;;;;;;;;12.80;74.90;;;;;;5064213;28;19916;-73
2022/05/30 04:23:09;;;;;;;;;;;12.80;74.90;;;;;;5061973;28;20014;-73
2022/05/30 04:25:35;;;;;;;;;;;12.80;74.90;;;;;;5064422;28;20570;-73
2022/05/30 04:28:01;;;;;;;;;;;12.80;74.80;;;;;;5064672;28;19927;-73
2022/05/30 04:30:27;;;;;;;;;;;12.80;74.80;;;;;;5063481;28;20553;-73
2022/05/30 04:32:52;;;;;;;;;;;12.80;74.80;;;;;;5068580;28;19948;-73
2022/05/30 04:35:18;;;;;;;;;;;12.80;74.90;;;;;;5060806;28;19956;-73
2022/05/30 04:37:46;;;;;;;;;;;12.80;74.70;;;;;;5046151;28;20016;-73
2022/05/30 04:40:13;;;;;;;;;;;12.80;74.80;;;;;;5054523;28;19942;-73
2022/05/30 04:42:39;;;;;;;;;;;12.80;74.80;;;;;;5068235;28;20461;-73
2022/05/30 04:45:05;;;;;;;;;;;12.80;74.80;;;;;;5065539;28;19920;-73
2022/05/30 04:47:35;;;;;;;;;;;12.80;74.90;;;;;;5049941;28;19970;-73
2022/05/30 04:50:02;;;;;;;;;;;12.90;74.90;;;;;;5064553;28;19923;-73
2022/05/30 04:52:28;;;;;;;;;;;12.80;74.70;;;;;;5063204;28;19920;-73
2022/05/30 04:54:53;;;;;;;;;;;12.80;74.70;;;;;;5050421;28;19987;-73
2022/05/30 04:57:19;;;;;;;;;;;12.80;74.70;;;;;;5067054;28;19912;-73
2022/05/30 04:59:44;;;;;;;;;;;12.90;74.80;;;;;;5064659;28;19996;-73
2022/05/30 05:02:12;;;;;;;;;;;12.90;74.70;;;;;;5061877;28;19909;-73
2022/05/30 05:04:39;;;;;;;;;;;12.90;74.60;;;;;;5046511;28;19913;-73
2022/05/30 05:07:05;;;;;;;;;;;12.90;74.70;;;;;;5045876;28;20011;-73
2022/05/30 05:09:31;;;;;;;;;;;12.90;74.70;;;;;;5042896;28;19923;-73
2022/05/30 05:11:56;;;;;;;;;;;12.90;74.60;;;;;;5062428;28;19929;-73
2022/05/30 05:14:22;;;;;;;;;;;12.90;74.50;;;;;;5067544;28;19912;-73
2022/05/30 05:16:47;;;;;;;;;;;12.90;74.60;;;;;;5064187;28;20034;-73
2022/05/30 05:19:13;;;;;;;;;;;12.90;74.50;;;;;;5066932;28;20666;-74
2022/05/30 05:21:39;;;;;;;;;;;13.00;74.50;;;;;;5064099;28;20011;-73
2022/05/30 05:24:06;;;;;;;;;;;13.00;74.40;;;;;;5053686;28;19920;-73
2022/05/30 05:26:32;;;;;;;;;;;13.00;74.30;;;;;;5059121;28;19917;-73
2022/05/30 05:28:58;;;;;;;;;;;13.00;74.30;;;;;;5067716;28;20591;-73
2022/05/30 05:31:24;;;;;;;;;;;13.10;75.00;;;;;;5060260;28;19966;-73
2022/05/30 05:33:50;;;;;;;;;;;13.10;74.30;;;;;;5047471;28;19917;-73
2022/05/30 05:36:23;;;;;;;;;;;13.00;74.30;;;;;;5048704;28;23037;-73
2022/05/30 05:38:49;;;;;;;;;;;13.10;74.30;;;;;;5055799;28;19994;-73
2022/05/30 05:41:14;;;;;;;;;;;13.10;74.30;;;;;;5045231;28;21093;-73
2022/05/30 05:43:40;;;;;;;;;;;13.10;74.30;;;;;;5046888;28;19972;-73
2022/05/30 05:46:11;;;;;;;;;;;13.10;74.20;;;;;;5046937;28;19923;-73
2022/05/30 05:48:36;;;;;;;;;;;13.20;74.20;;;;;;5064623;28;19948;-73
2022/05/30 05:51:03;;;;;;;;;;;13.20;74.00;;;;;;5049377;28;19966;-73
2022/05/30 05:53:29;;;;;;;;;;;13.20;74.00;;;;;;5052447;28;20288;-73
2022/05/30 05:55:54;;;;;;;;;;;13.20;74.00;;;;;;5047122;28;19917;-73
2022/05/30 05:58:20;;;;;;;;;;;13.30;73.90;;;;;;5058791;28;19913;-73
2022/05/30 06:00:45;;;;;;;;;;;13.30;73.80;;;;;;5035020;28;19932;-73
2022/05/30 06:03:11;;;;;;;;;;;13.30;73.70;;;;;;5049291;28;19909;-73
2022/05/30 06:05:38;;;;;;;;;;;13.30;73.70;;;;;;5066585;28;19916;-73
2022/05/30 06:08:04;;;;;;;;;;;13.30;73.60;;;;;;5057154;28;19979;-73
2022/05/30 06:10:30;;;;;;;;;;;13.30;73.60;;;;;;5046840;28;19960;-73
2022/05/30 06:12:55;;;;;;;;;;;13.40;73.60;;;;;;5050121;28;19920;-73
2022/05/30 06:15:21;;;;;;;;;;;13.40;73.40;;;;;;5066617;28;19917;-73
2022/05/30 06:17:47;;;;;;;;;;;13.40;73.40;;;;;;5063470;28;19956;-73
2022/05/30 06:20:14;;;;;;;;;;;13.40;73.30;;;;;;5066309;28;19908;-73
2022/05/30 06:22:39;;;;;;;;;;;13.50;73.30;;;;;;5064854;28;19908;-73
2022/05/30 06:25:05;;;;;;;;;;;13.50;73.10;;;;;;5065168;28;19926;-73
2022/05/30 06:27:31;;;;;;;;;;;13.60;73.20;;;;;;5046191;28;19920;-73
2022/05/30 06:29:57;;;;;;;;;;;13.50;73.00;;;;;;5061430;28;19917;-73
2022/05/30 06:32:23;;;;;;;;;;;13.60;73.10;;;;;;5066388;28;19915;-73
2022/05/30 06:34:48;;;;;;;;;;;13.60;73.10;;;;;;5063419;28;19924;-73
2022/05/30 06:37:14;;;;;;;;;;;13.60;72.90;;;;;;5065953;28;19999;-73
2022/05/30 06:39:39;;;;;;;;;;;13.60;72.80;;;;;;5056441;28;19923;-73
2022/05/30 06:42:09;;;;;;;;;;;13.70;72.80;;;;;;5066087;28;19917;-73
2022/05/30 06:44:35;;;;;;;;;;;13.70;72.70;;;;;;5063346;28;20400;-73
2022/05/30 06:47:01;;;;;;;;;;;13.70;72.60;;;;;;5065405;28;19912;-73
2022/05/30 06:49:27;;;;;;;;;;;13.80;72.70;;;;;;5063369;28;19924;-74
2022/05/30 06:51:52;;;;;;;;;;;13.70;72.60;;;;;;5065894;28;20682;-73
2022/05/30 06:54:18;;;;;;;;;;;13.80;72.60;;;;;;5045385;28;20767;-73
2022/05/30 06:58:12;;;;;;;;;;;13.80;72.60;;;;;;5064537;28;19912;-73
2022/05/30 06:59:29;;;;;;;;;;;13.80;72.40;;;;;;5061165;28;19965;-73
2022/05/30 07:01:54;;;;;;;;;;;13.90;72.30;;;;;;5061229;28;19956;-73
2022/05/30 07:04:19;;;;;;;;;;;13.90;72.30;;;;;;5042829;28;20382;-73
2022/05/30 07:06:45;;;;;;;;;;;13.90;72.30;;;;;;5063164;28;19920;-73
2022/05/30 07:09:11;;;;;;;;;;;13.90;72.20;;;;;;5041128;28;20569;-73
2022/05/30 07:11:39;;;;;;;;;;;14.00;72.10;;;;;;5061130;28;19924;-73
2022/05/30 07:14:06;;;;;;;;;;;14.00;72.00;;;;;;5065342;28;19909;-73
2022/05/30 07:16:31;;;;;;;;;;;14.10;71.90;;;;;;5062763;28;19916;-73
2022/05/30 07:18:57;;;;;;;;;;;14.10;71.90;;;;;;5065458;28;20431;-73
2022/05/30 07:21:22;;;;;;;;;;;14.20;71.80;;;;;;5062581;28;20423;-73
2022/05/30 07:23:49;;;;;;;;;;;14.10;71.60;;;;;;5062637;28;19920;-74
2022/05/30 07:26:16;;;;;;;;;;;14.20;71.50;;;;;;5052804;28;20397;-73
2022/05/30 07:28:42;;;;;;;;;;;14.20;71.40;;;;;;5065267;28;20345;-73
2022/05/30 07:31:09;;;;;;;;;;;14.30;71.30;;;;;;5062905;28;19974;-73
2022/05/30 07:33:37;;;;;;;;;;;14.30;71.20;;;;;;5065313;28;19955;-73
2022/05/30 07:36:06;;;;;;;;;;;14.30;71.20;;;;;;5062284;28;19966;-73
2022/05/30 07:38:32;;;;;;;;;;;14.30;71.00;;;;;;5056118;28;20441;-73
2022/05/30 07:40:58;;;;;;;;;;;14.40;71.10;;;;;;5045182;28;19921;-73
2022/05/30 07:43:23;;;;;;;;;;;14.40;71.00;;;;;;5046803;28;19912;-73
2022/05/30 07:45:49;;;;;;;;;;;14.40;70.90;;;;;;5044666;28;19920;-73
2022/05/30 07:48:14;;;;;;;;;;;14.50;70.90;;;;;;5062371;28;19916;-73
2022/05/30 07:50:40;;;;;;;;;;;14.50;70.70;;;;;;5065257;28;19913;-73
2022/05/30 07:53:05;;;;;;;;;;;14.60;70.60;;;;;;5053256;28;19927;-73
2022/05/30 07:55:31;;;;;;;;;;;14.60;70.30;;;;;;5029472;28;19924;-73
2022/05/30 07:58:04;;;;;;;;;;;14.60;70.10;;;;;;5050684;28;19924;-72
2022/05/30 08:00:31;;;;;;;;;;;14.70;70.00;;;;;;5065103;28;19919;-73
2022/05/30 08:02:56;;;;;;;;;;;14.70;69.90;;;;;;5060503;28;19920;-73
2022/05/30 08:05:22;;;;;;;;;;;14.80;69.70;;;;;;5065977;28;19951;-73
2022/05/30 08:07:47;;;;;;;;;;;14.80;69.80;;;;;;5054904;28;19925;-73
2022/05/30 08:10:14;;;;;;;;;;;14.80;69.80;;;;;;5029188;28;19962;-73
2022/05/30 08:12:39;;;;;;;;;;;14.70;69.70;;;;;;5053103;28;20375;-73
2022/05/30 08:15:05;;;;;;;;;;;14.70;69.90;;;;;;5069164;28;20007;-73
2022/05/30 08:17:31;;;;;;;;;;;14.70;69.90;;;;;;5047999;28;19963;-73
2022/05/30 08:19:59;;;;;;;;;;;14.70;69.80;;;;;;5066846;28;19912;-72
2022/05/30 08:22:24;;;;;;;;;;;14.70;69.80;;;;;;5047510;28;20000;-72
2022/05/30 08:24:53;;;;;;;;;;;14.70;69.80;;;;;;5068320;28;19920;-72
2022/05/30 08:27:19;;;;;;;;;;;14.70;69.50;;;;;;5068336;28;19981;-73
2022/05/30 08:29:45;;;;;;;;;;;14.80;69.70;;;;;;5065854;28;19921;-72
2022/05/30 08:32:11;;;;;;;;;;;14.80;69.70;;;;;;5068713;28;19944;-73
2022/05/30 08:34:37;;;;;;;;;;;14.80;69.50;;;;;;5066015;28;19920;-73
2022/05/30 08:37:03;;;;;;;;;;;14.80;69.10;;;;;;5068245;28;19953;-72
2022/05/30 08:42:12;;;;;;;;;;;14.80;69.20;;;;;;5048741;28;20312;-73
2022/05/30 08:44:38;;;;;;;;;;;14.90;69.30;;;;;;5059407;28;20015;-73
2022/05/30 08:47:11;;;;;;;;;;;14.90;69.30;;;;;;5068227;28;20377;-73
2022/05/30 08:49:45;;;;;;;;;;;14.90;69.30;;;;;;5065995;28;19916;-72
2022/05/30 08:52:30;;;;;;;;;;;14.90;69.30;;;;;;5064867;28;19916;-73
2022/05/30 08:55:04;;;;;;;;;;;14.90;69.30;;;;;;5050355;28;20010;-72
2022/05/30 08:57:41;;;;;;;;;;;15.00;69.30;;;;;;5067879;28;19913;-73
2022/05/30 09:00:13;;;;;;;;;;;15.00;69.40;;;;;;5065481;28;19923;-73
2022/05/30 09:02:38;;;;;;;;;;;15.00;69.30;;;;;;5058459;28;19913;-72
2022/05/30 09:05:07;;;;;;;;;;;15.00;69.10;;;;;;5055593;28;19920;-72
2022/05/30 09:07:41;;;;;;;;;;;15.10;68.90;;;;;;5060460;28;20397;-73
2022/05/30 09:10:10;;;;;;;;;;;15.20;68.50;;;;;;5052096;28;19913;-72
2022/05/30 09:12:44;;;;;;;;;;;15.40;68.20;;;;;;5050074;28;19940;-73
2022/05/30 09:15:14;;;;;;;;;;;15.50;67.90;;;;;;5065263;28;19916;-73
2022/05/30 09:17:47;;;;;;;;;;;15.40;67.80;;;;;;5053376;28;19913;-73
2022/05/30 09:20:18;;;;;;;;;;;15.50;67.70;;;;;;5052648;28;19973;-73
2022/05/30 09:22:43;;;;;;;;;;;15.50;68.40;;;;;;5067639;28;19908;-72
2022/05/30 09:28:03;;;;;;;;;;;15.50;67.50;;;;;;5067763;28;20054;-73
2022/05/30 09:30:36;;;;;;;;;;;15.60;67.30;;;;;;5064977;28;20007;-72
2022/05/30 09:33:09;;;;;;;;;;;15.60;67.10;;;;;;5067463;28;20258;-72
2022/05/30 09:35:35;;;;;;;;;;;15.60;67.00;;;;;;5064308;28;19923;-73
2022/05/30 09:38:05;;;;;;;;;;;15.60;66.90;;;;;;5062436;28;19913;-72
2022/05/30 09:40:34;;;;;;;;;;;15.60;66.80;;;;;;5045397;28;19955;-73
2022/05/30 09:43:00;;;;;;;;;;;15.70;66.60;;;;;;5067279;28;19935;-73
2022/05/30 09:45:27;;;;;;;;;;;15.70;66.60;;;;;;5048723;28;19917;-72
2022/05/30 09:48:01;;;;;;;;;;;15.70;66.60;;;;;;5065050;28;20536;-73
2022/05/30 09:50:27;;;;;;;;;;;15.70;66.50;;;;;;5066095;28;19920;-72
2022/05/30 09:52:52;;;;;;;;;;;15.70;66.40;;;;;;5045222;28;19967;-73
2022/05/30 09:55:26;;;;;;;;;;;15.70;66.40;;;;;;5046250;28;20309;-73
2022/05/30 09:57:52;;;;;;;;;;;15.70;66.50;;;;;;5030410;28;19921;-72
2022/05/30 10:00:20;;;;;;;;;;;15.70;66.60;;;;;;5026171;28;19917;-73
2022/05/30 10:02:57;;;;;;;;;;;15.70;66.60;;;;;;5042212;28;19921;-73
2022/05/30 10:05:25;;;;;;;;;;;15.70;66.60;;;;;;5046620;28;19916;-73
2022/05/30 10:07:52;;;;;;;;;;;15.60;66.60;;;;;;5044903;28;20028;-73
2022/05/30 10:10:18;;;;;;;;;;;15.60;66.60;;;;;;5045597;28;19908;-72
2022/05/30 10:12:52;;;;;;;;;;;15.70;66.50;;;;;;5049353;28;19916;-72
2022/05/30 10:15:31;;;;;;;;;;;15.70;67.20;;;;;;5046684;28;19912;-72
2022/05/30 10:18:17;;;;;;;;;;;15.70;66.50;;;;;;5054978;28;19921;-72
2022/05/30 10:21:00;;;;;;;;;;;15.70;66.40;;;;;;5065528;28;19940;-72
2022/05/30 10:29:24;;;;;;;;;;;15.80;66.00;;;;;;5062838;28;19927;-72
2022/05/30 10:31:58;;;;;;;;;;;15.90;65.80;;;;;;5066095;28;19912;-72
2022/05/30 10:34:42;;;;;;;;;;;15.90;65.50;;;;;;5063604;28;19916;-72
2022/05/30 10:37:14;;;;;;;;;;;16.00;65.50;;;;;;5065774;28;19912;-72
2022/05/30 10:39:39;;;;;;;;;;;16.00;65.30;;;;;;5052401;28;20367;-72
2022/05/30 10:42:10;;;;;;;;;;;16.10;65.10;;;;;;5046124;28;19917;-72
2022/05/30 10:44:40;;;;;;;;;;;16.20;64.90;;;;;;5059404;28;19931;-72
2022/05/30 10:47:18;;;;;;;;;;;16.20;64.60;;;;;;5065693;28;19917;-72
2022/05/30 10:49:45;;;;;;;;;;;16.20;64.50;;;;;;5062987;28;20408;-72
2022/05/30 10:52:19;;;;;;;;;;;16.30;64.50;;;;;;5062922;28;19938;-72
2022/05/30 10:54:47;;;;;;;;;;;16.40;64.30;;;;;;5052065;28;19924;-72
2022/05/30 10:57:13;;;;;;;;;;;16.40;64.10;;;;;;5065895;28;19916;-72
2022/05/30 10:59:44;;;;;;;;;;;16.40;64.10;;;;;;5062935;28;19916;-72
2022/05/30 11:02:10;;;;;;;;;;;16.40;63.90;;;;;;5060683;28;19913;-72
2022/05/30 11:04:39;;;;;;;;;;;16.50;64.20;;;;;;5052720;28;20690;-72
2022/05/30 11:07:36;;;;;;;;;;;16.40;63.80;;;;;;5062805;28;20642;-72
2022/05/30 11:10:20;;;;;;;;;;;16.50;63.70;;;;;;5051352;28;19923;-72
2022/05/30 11:12:49;;;;;;;;;;;16.50;63.70;;;;;;5065358;28;20294;-72
2022/05/30 11:15:14;;;;;;;;;;;16.50;63.90;;;;;;5062693;28;19916;-72
2022/05/30 11:17:54;;;;;;;;;;;16.60;63.90;;;;;;5065201;28;19912;-72
2022/05/30 11:20:23;;;;;;;;;;;16.60;63.70;;;;;;5061033;28;19923;-72
2022/05/30 11:22:50;;;;;;;;;;;16.70;63.60;;;;;;5065464;28;20365;-72
2022/05/30 11:25:21;;;;;;;;;;;16.80;63.50;;;;;;5062715;28;20573;-73
2022/05/30 11:27:53;;;;;;;;;;;16.80;63.30;;;;;;5065288;28;20505;-72
2022/05/30 11:30:21;;;;;;;;;;;16.80;63.30;;;;;;5056366;28;19916;-72
2022/05/30 11:32:57;;;;;;;;;;;16.90;63.20;;;;;;5045114;28;19913;-72
2022/05/30 11:35:26;;;;;;;;;;;16.90;63.00;;;;;;5048724;28;20016;-72
2022/05/30 11:37:55;;;;;;;;;;;16.80;62.90;;;;;;5061707;28;20023;-72
2022/05/30 11:40:28;;;;;;;;;;;16.90;63.00;;;;;;5045735;28;20688;-72
2022/05/30 11:43:13;;;;;;;;;;;16.90;63.10;;;;;;5065266;28;19913;-72
2022/05/30 11:46:01;;;;;;;;;;;16.90;63.20;;;;;;5061281;28;19927;-72
2022/05/30 11:48:33;;;;;;;;;;;16.90;63.50;;;;;;5048593;28;19917;-72
2022/05/30 11:51:05;;;;;;;;;;;16.90;63.50;;;;;;5049622;28;19917;-72
2022/05/30 11:53:39;;;;;;;;;;;16.80;63.60;;;;;;5052144;28;19913;-72
2022/05/30 11:56:18;;;;;;;;;;;16.90;63.40;;;;;;5041573;28;19924;-72
2022/05/30 11:58:56;;;;;;;;;;;16.80;63.30;;;;;;5044967;28;19913;-72
2022/05/30 12:01:23;;;;;;;;;;;16.80;63.60;;;;;;5030085;28;20026;-72
2022/05/30 12:03:58;;;;;;;;;;;16.80;63.50;;;;;;5045585;28;19916;-72
2022/05/30 12:06:26;;;;;;;;;;;16.80;63.40;;;;;;5046569;28;19951;-72
2022/05/30 12:08:52;;;;;;;;;;;16.80;63.20;;;;;;5045260;28;19921;-71
2022/05/30 12:11:17;;;;;;;;;;;16.80;63.20;;;;;;5046113;28;20500;-72
2022/05/30 12:13:52;;;;;;;;;;;16.90;63.00;;;;;;5064883;28;19937;-71
2022/05/30 12:16:23;;;;;;;;;;;16.90;62.80;;;;;;5062616;28;19936;-73
2022/05/30 12:24:31;;;;;;;;;;;17.10;62.30;;;;;;5063652;28;19969;-72
2022/05/30 12:26:58;;;;;;;;;;;17.20;62.10;;;;;;5060958;28;19924;-72
2022/05/30 12:29:37;;;;;;;;;;;17.20;62.30;;;;;;5064101;28;19924;-73
2022/05/30 12:32:29;;;;;;;;;;;17.30;62.00;;;;;;5061182;28;19962;-72
2022/05/30 12:34:58;;;;;;;;;;;17.40;62.00;;;;;;5053269;28;19916;-72
2022/05/30 12:37:43;;;;;;;;;;;17.40;61.90;;;;;;5055966;28;19921;-73
2022/05/30 12:40:11;;;;;;;;;;;17.60;61.70;;;;;;5035858;28;19921;-73
2022/05/30 12:42:42;;;;;;;;;;;17.80;61.40;;;;;;5044214;28;20038;-73
2022/05/30 12:45:26;;;;;;;;;;;17.80;61.20;;;;;;5064314;28;20409;-73
2022/05/30 12:47:53;;;;;;;;;;;17.90;61.00;;;;;;5061903;28;19916;-72
2022/05/30 12:50:25;;;;;;;;;;;18.00;60.90;;;;;;5064465;28;20007;-72
2022/05/30 12:52:52;;;;;;;;;;;18.10;60.60;;;;;;5054821;28;20358;-71
2022/05/30 12:55:30;;;;;;;;;;;18.10;60.80;;;;;;5068021;28;20015;-72
2022/05/30 12:57:55;;;;;;;;;;;18.20;60.80;;;;;;5066419;28;19915;-72
2022/05/30 13:00:21;;;;;;;;;;;18.20;60.40;;;;;;5067384;28;19912;-72
2022/05/30 13:02:49;;;;;;;;;;;18.40;60.00;;;;;;5053570;28;20667;-72
2022/05/30 13:05:17;;;;;;;;;;;18.40;60.10;;;;;;5061941;28;20512;-72
2022/05/30 13:07:42;;;;;;;;;;;18.50;60.00;;;;;;5056432;28;19913;-72
2022/05/30 13:10:09;;;;;;;;;;;18.50;59.80;;;;;;5058040;28;19923;-72
2022/05/30 13:12:52;;;;;;;;;;;18.60;59.80;;;;;;5066073;28;19934;-72
2022/05/30 13:15:21;;;;;;;;;;;18.60;60.00;;;;;;5065010;28;19923;-72
2022/05/30 13:17:47;;;;;;;;;;;18.60;59.60;;;;;;5067713;28;19909;-72
2022/05/30 13:20:17;;;;;;;;;;;18.60;59.70;;;;;;5064492;28;19916;-72
2022/05/30 13:22:48;;;;;;;;;;;18.60;59.50;;;;;;5067873;28;19912;-72
2022/05/30 13:25:27;;;;;;;;;;;18.60;59.60;;;;;;5064558;28;19921;-72
2022/05/30 13:27:53;;;;;;;;;;;18.70;59.70;;;;;;5067602;28;20088;-72
2022/05/30 13:30:20;;;;;;;;;;;18.70;59.80;;;;;;5063316;28;20639;-72
2022/05/30 13:32:46;;;;;;;;;;;18.80;59.40;;;;;;5066814;28;19967;-72
2022/05/30 13:35:12;;;;;;;;;;;18.70;59.70;;;;;;5064629;28;20011;-72
2022/05/30 13:37:40;;;;;;;;;;;18.80;59.00;;;;;;5065194;28;19974;-72
2022/05/30 13:40:18;;;;;;;;;;;18.80;58.60;;;;;;5031759;28;19921;-71
2022/05/30 13:42:46;;;;;;;;;;;18.90;58.70;;;;;;5067277;28;19908;-72
2022/05/30 13:45:12;;;;;;;;;;;19.00;58.60;;;;;;5064255;28;20638;-72
2022/05/30 13:47:40;;;;;;;;;;;19.00;58.30;;;;;;5063180;28;19963;-72
2022/05/30 13:50:05;;;;;;;;;;;19.10;58.30;;;;;;5046236;28;19920;-72
2022/05/30 13:52:32;;;;;;;;;;;19.00;58.40;;;;;;5062221;28;19913;-72
2022/05/30 13:55:01;;;;;;;;;;;19.00;58.70;;;;;;5046956;28;19962;-72
2022/05/30 13:57:27;;;;;;;;;;;19.00;58.90;;;;;;5047682;28;19947;-72
2022/05/30 13:59:54;;;;;;;;;;;18.90;59.00;;;;;;5047626;28;20357;-72
2022/05/30 14:02:24;;;;;;;;;;;18.80;59.10;;;;;;5047768;28;19928;-72
2022/05/30 14:04:53;;;;;;;;;;;18.80;59.20;;;;;;5046563;28;19962;-72
2022/05/30 14:07:28;;;;;;;;;;;18.70;59.50;;;;;;5048402;28;19950;-72
2022/05/30 14:09:56;;;;;;;;;;;18.60;59.60;;;;;;5052761;28;19917;-72
2022/05/30 14:12:31;;;;;;;;;;;18.60;59.60;;;;;;5063016;28;19985;-72
2022/05/30 14:15:06;;;;;;;;;;;18.50;59.90;;;;;;5066339;28;19981;-72
2022/05/30 14:17:32;;;;;;;;;;;18.50;60.00;;;;;;5063471;28;20470;-72
2022/05/30 14:20:24;;;;;;;;;;;18.40;60.10;;;;;;5066347;28;19999;-72
2022/05/30 14:23:10;;;;;;;;;;;18.40;60.40;;;;;;5059199;28;20480;-72
2022/05/30 14:25:44;;;;;;;;;;;18.30;60.50;;;;;;5026427;28;20376;-73
2022/05/30 14:28:26;;;;;;;;;;;18.30;60.60;;;;;;5055400;28;20006;-72
2022/05/30 14:30:51;;;;;;;;;;;18.20;60.60;;;;;;5066581;28;20007;-72
2022/05/30 14:33:17;;;;;;;;;;;18.20;60.60;;;;;;5064024;28;20353;-72
2022/05/30 14:35:42;;;;;;;;;;;18.20;60.40;;;;;;5066436;28;19913;-72
2022/05/30 14:38:09;;;;;;;;;;;18.20;60.50;;;;;;5057695;28;19944;-73
2022/05/30 14:40:38;;;;;;;;;;;18.10;60.10;;;;;;5046209;28;19917;-72
2022/05/30 14:43:21;;;;;;;;;;;18.10;59.70;;;;;;5053875;28;20027;-72
2022/05/30 14:45:58;;;;;;;;;;;18.20;59.60;;;;;;5066051;28;19971;-72
2022/05/30 14:48:24;;;;;;;;;;;18.10;59.50;;;;;;5063742;28;20369;-72
2022/05/30 14:50:51;;;;;;;;;;;18.20;59.50;;;;;;5066081;28;19919;-72